createdAt,value
2018-12-18T00:01:32.860Z,14.20
2018-12-18T00:04:00.322Z,17.37
2018-12-18T00:06:27.762Z,14.63
2018-12-18T00:08:55.220Z,16.67
2018-12-18T00:11:22.665Z,18.87
2018-12-18T00:13:50.114Z,14.23
2018-12-18T00:16:17.641Z,16.20
2018-12-18T00:18:45.088Z,14.73
2018-12-18T00:21:12.539Z,14.73
2018-12-18T00:23:39.990Z,15.40
2018-12-18T00:26:07.426Z,16.90
2018-12-18T00:28:34.886Z,17.80
2018-12-18T00:31:02.404Z,19.23
2018-12-18T00:33:29.893Z,21.50
2018-12-18T00:35:57.522Z,15.87
2018-12-18T00:38:24.967Z,19.60
2018-12-18T00:40:52.422Z,19.27
2018-12-18T00:43:19.873Z,20.27
2018-12-18T00:45:47.567Z,19.10
2018-12-18T00:48:15.036Z,18.70
2018-12-18T00:50:42.548Z,16.50
2018-12-18T00:53:10.101Z,21.60
2018-12-18T00:55:37.557Z,18.97
2018-12-18T00:58:05.012Z,16.07
2018-12-18T01:00:32.465Z,16.40
2018-12-18T01:02:59.938Z,17.20
2018-12-18T01:05:27.390Z,15.63
2018-12-18T01:07:54.841Z,17.53
2018-12-18T01:10:22.301Z,18.37
2018-12-18T01:12:49.817Z,17.20
2018-12-18T01:15:17.331Z,14.53
2018-12-18T01:17:44.789Z,12.50
2018-12-18T01:20:12.228Z,16.33
2018-12-18T01:22:39.744Z,20.70
2018-12-18T01:25:07.330Z,14.43
2018-12-18T01:27:34.795Z,14.60
2018-12-18T01:30:02.249Z,16.60
2018-12-18T01:32:29.698Z,16.30
2018-12-18T01:34:57.160Z,17.77
2018-12-18T01:37:24.625Z,14.20
2018-12-18T01:39:52.086Z,14.60
2018-12-18T01:42:19.649Z,15.00
2018-12-18T01:44:47.122Z,12.00
2018-12-18T01:47:14.599Z,16.63
2018-12-18T01:49:42.121Z,15.33
2018-12-18T01:52:09.573Z,18.13
2018-12-18T01:54:37.005Z,17.80
2018-12-18T01:57:04.466Z,14.97
2018-12-18T01:59:31.989Z,13.93
2018-12-18T02:01:59.505Z,16.80
2018-12-18T02:04:26.955Z,14.67
2018-12-18T02:06:54.494Z,13.97
2018-12-18T02:09:22.485Z,18.10
2018-12-18T02:11:49.985Z,15.30
2018-12-18T02:14:17.459Z,14.60
2018-12-18T02:16:44.933Z,15.53
2018-12-18T02:19:12.413Z,14.50
2018-12-18T02:21:39.938Z,12.80
2018-12-18T02:24:07.405Z,12.67
2018-12-18T02:26:34.889Z,16.90
2018-12-18T02:29:02.341Z,22.73
2018-12-18T02:31:29.873Z,14.20
2018-12-18T02:33:57.360Z,15.37
2018-12-18T02:36:24.826Z,11.83
2018-12-18T02:38:52.273Z,17.37
2018-12-18T02:41:19.738Z,14.43
2018-12-18T02:43:47.190Z,14.17
2018-12-18T02:46:15.295Z,12.37
2018-12-18T02:48:42.760Z,15.10
2018-12-18T02:51:10.247Z,15.10
2018-12-18T02:53:37.777Z,14.43
2018-12-18T02:56:05.201Z,12.10
2018-12-18T02:58:32.696Z,16.33
2018-12-18T03:01:00.134Z,16.40
2018-12-18T03:03:27.615Z,20.77
2018-12-18T03:05:55.676Z,20.37
2018-12-18T03:08:23.102Z,17.73
2018-12-18T03:10:50.633Z,21.40
2018-12-18T03:13:18.078Z,12.80
2018-12-18T03:15:45.502Z,16.90
2018-12-18T03:18:12.963Z,14.37
2018-12-18T03:20:40.424Z,15.07
2018-12-18T03:23:07.861Z,14.30
2018-12-18T03:25:35.332Z,15.73
2018-12-18T03:28:02.856Z,18.60
2018-12-18T03:30:30.334Z,18.13
2018-12-18T03:32:57.849Z,15.87
2018-12-18T03:35:25.309Z,16.40
2018-12-18T03:37:52.814Z,20.10
2018-12-18T03:40:20.267Z,18.50
2018-12-18T03:42:47.720Z,22.47
2018-12-18T03:45:15.169Z,18.80
2018-12-18T03:47:42.656Z,16.93
2018-12-18T03:50:10.301Z,18.03
2018-12-18T03:52:37.762Z,17.80
2018-12-18T03:55:06.353Z,16.57
2018-12-18T03:57:33.822Z,15.97
2018-12-18T04:00:01.236Z,17.03
2018-12-18T04:02:28.780Z,16.20
2018-12-18T04:04:56.337Z,18.20
2018-12-18T04:07:23.795Z,19.47
2018-12-18T04:09:51.251Z,21.57
2018-12-18T04:12:22.211Z,19.17
2018-12-18T04:14:49.735Z,22.57
2018-12-18T04:17:17.239Z,17.53
2018-12-18T04:19:44.717Z,21.40
2018-12-18T04:22:12.157Z,19.87
2018-12-18T04:24:39.590Z,20.93
2018-12-18T04:27:08.444Z,16.83
2018-12-18T04:29:35.935Z,17.87
2018-12-18T04:32:03.392Z,17.20
2018-12-18T04:34:30.848Z,19.80
2018-12-18T04:36:58.297Z,19.27
2018-12-18T04:39:25.840Z,16.00
2018-12-18T04:41:53.296Z,19.10
2018-12-18T04:44:20.814Z,19.37
2018-12-18T04:46:48.271Z,19.67
2018-12-18T04:49:15.720Z,22.83
2018-12-18T04:51:43.146Z,18.67
2018-12-18T04:54:10.708Z,22.57
2018-12-18T04:56:38.154Z,20.53
2018-12-18T04:59:08.136Z,21.20
2018-12-18T05:01:35.597Z,20.63
2018-12-18T05:04:03.936Z,21.67
2018-12-18T05:06:31.667Z,20.57
2018-12-18T05:08:59.136Z,18.63
2018-12-18T05:11:26.591Z,22.67
2018-12-18T05:13:54.058Z,21.87
2018-12-18T05:16:21.520Z,19.87
2018-12-18T05:18:49.014Z,16.67
2018-12-18T05:21:16.445Z,26.57
2018-12-18T05:23:43.899Z,18.00
2018-12-18T05:26:11.431Z,26.60
2018-12-18T05:28:38.893Z,16.30
2018-12-18T05:31:06.441Z,15.50
2018-12-18T05:33:33.940Z,22.83
2018-12-18T05:36:01.389Z,22.60
2018-12-18T05:38:28.846Z,18.40
2018-12-18T05:40:56.273Z,19.77
2018-12-18T05:43:23.716Z,22.63
2018-12-18T05:45:51.163Z,17.87
2018-12-18T05:48:18.738Z,20.00
2018-12-18T05:50:46.182Z,18.60
2018-12-18T05:53:14.163Z,19.87
2018-12-18T05:55:41.750Z,15.60
2018-12-18T05:58:09.296Z,18.40
2018-12-18T06:00:36.738Z,19.77
2018-12-18T06:03:04.289Z,20.57
2018-12-18T06:05:31.737Z,21.67
2018-12-18T06:07:59.253Z,16.47
2018-12-18T06:10:27.646Z,20.37
2018-12-18T06:12:55.107Z,21.60
2018-12-18T06:15:22.544Z,19.67
2018-12-18T06:17:50.011Z,18.90
2018-12-18T06:20:17.583Z,20.90
2018-12-18T06:22:45.006Z,20.60
2018-12-18T06:25:12.467Z,20.40
2018-12-18T06:27:39.954Z,16.20
2018-12-18T06:30:07.567Z,20.70
2018-12-18T06:32:35.022Z,14.40
2018-12-18T06:35:02.562Z,17.20
2018-12-18T06:37:30.026Z,13.70
2018-12-18T06:39:57.908Z,19.47
2018-12-18T06:42:25.354Z,18.97
2018-12-18T06:44:52.821Z,14.60
2018-12-18T06:47:21.223Z,20.47
2018-12-18T06:49:48.661Z,15.83
2018-12-18T06:52:16.116Z,17.43
2018-12-18T06:54:43.656Z,18.70
2018-12-18T06:57:11.135Z,17.57
2018-12-18T06:59:38.577Z,19.90
2018-12-18T07:02:06.023Z,16.37
2018-12-18T07:04:33.474Z,19.73
2018-12-18T07:07:00.962Z,16.97
2018-12-18T07:09:28.393Z,21.57
2018-12-18T07:11:55.897Z,19.63
2018-12-18T07:14:23.497Z,17.43
2018-12-18T07:16:51.446Z,18.20
2018-12-18T07:19:18.995Z,18.70
2018-12-18T07:21:46.570Z,15.83
2018-12-18T07:24:14.408Z,18.30
2018-12-18T07:26:42.001Z,17.97
2018-12-18T07:29:10.376Z,18.73
2018-12-18T07:31:37.855Z,20.17
2018-12-18T07:34:05.466Z,24.50
2018-12-18T07:36:33.114Z,20.70
2018-12-18T07:39:00.699Z,18.50
2018-12-18T07:41:28.166Z,19.93
2018-12-18T07:43:55.685Z,23.97
2018-12-18T07:46:23.116Z,19.77
2018-12-18T07:48:50.666Z,17.73
2018-12-18T07:51:18.096Z,22.70
2018-12-18T07:53:45.627Z,17.40
2018-12-18T07:56:13.252Z,22.10
2018-12-18T07:58:40.835Z,19.20
2018-12-18T08:01:08.270Z,24.77
2018-12-18T08:03:35.718Z,22.23
2018-12-18T08:06:03.425Z,17.40
2018-12-18T08:08:31.442Z,18.90
2018-12-18T08:10:58.907Z,19.43
2018-12-18T08:13:26.380Z,22.33
2018-12-18T08:15:53.836Z,23.43
2018-12-18T08:18:21.379Z,25.10
2018-12-18T08:20:48.936Z,21.87
2018-12-18T08:23:16.402Z,21.83
2018-12-18T08:25:43.874Z,24.70
2018-12-18T08:28:11.416Z,19.60
2018-12-18T08:30:38.866Z,26.10
2018-12-18T08:33:06.341Z,23.73
2018-12-18T08:35:36.655Z,24.43
2018-12-18T08:38:03.306Z,23.67
2018-12-18T08:40:31.394Z,18.63
2018-12-18T08:42:58.897Z,26.20
2018-12-18T08:45:26.322Z,28.70
2018-12-18T08:47:53.804Z,27.00
2018-12-18T08:50:21.510Z,22.30
2018-12-18T08:52:49.007Z,21.63
2018-12-18T08:55:16.492Z,19.77
2018-12-18T08:57:44.147Z,23.77
2018-12-18T09:00:11.624Z,24.13
2018-12-18T09:02:39.190Z,23.63
2018-12-18T09:05:06.817Z,20.87
2018-12-18T09:07:34.566Z,29.93
2018-12-18T09:10:01.997Z,22.83
2018-12-18T09:12:29.919Z,26.00
2018-12-18T09:14:57.634Z,24.90
2018-12-18T09:17:31.566Z,29.27
2018-12-18T09:19:59.185Z,29.43
2018-12-18T09:22:26.645Z,24.83
2018-12-18T09:24:54.158Z,22.63
2018-12-18T09:27:21.718Z,23.50
2018-12-18T09:29:49.251Z,25.80
2018-12-18T09:32:17.284Z,17.67
2018-12-18T09:34:44.761Z,15.17
2018-12-18T09:37:12.470Z,15.80
2018-12-18T09:39:42.096Z,17.93
2018-12-18T09:42:15.335Z,17.43
2018-12-18T09:44:42.801Z,18.70
2018-12-18T09:47:10.278Z,16.80
2018-12-18T09:49:37.750Z,15.33
2018-12-18T09:52:05.281Z,19.40
2018-12-18T09:54:32.836Z,21.67
2018-12-18T09:57:00.623Z,23.90
2018-12-18T09:59:29.097Z,26.73
2018-12-18T10:01:56.531Z,20.27
2018-12-18T10:04:24.345Z,20.00
2018-12-18T10:06:51.802Z,18.07
2018-12-18T10:09:19.376Z,15.40
2018-12-18T10:11:46.844Z,19.63
2018-12-18T10:14:14.359Z,17.27
2018-12-18T10:16:42.888Z,18.03
2018-12-18T10:19:10.327Z,13.93
2018-12-18T10:21:37.937Z,20.33
2018-12-18T10:24:05.387Z,14.27
2018-12-18T10:26:34.071Z,21.57
2018-12-18T10:29:01.533Z,16.50
2018-12-18T10:31:29.134Z,20.87
2018-12-18T10:33:56.565Z,21.00
2018-12-18T10:36:24.113Z,13.67
2018-12-18T10:38:51.545Z,20.40
2018-12-18T10:41:19.050Z,16.60
2018-12-18T10:43:46.651Z,18.10
2018-12-18T10:46:14.119Z,13.80
2018-12-18T10:48:41.625Z,13.33
2018-12-18T10:51:09.058Z,18.60
2018-12-18T10:53:36.569Z,14.67
2018-12-18T10:56:04.301Z,22.40
2018-12-18T10:58:31.773Z,15.70
2018-12-18T11:01:04.951Z,14.27
2018-12-18T11:03:32.521Z,17.73
2018-12-18T11:05:59.976Z,13.23
2018-12-18T11:08:28.369Z,13.50
2018-12-18T11:10:55.804Z,15.17
2018-12-18T11:13:24.239Z,15.10
2018-12-18T11:15:51.789Z,12.97
2018-12-18T11:18:19.233Z,12.10
2018-12-18T11:20:46.707Z,12.93
2018-12-18T11:23:14.137Z,14.60
2018-12-18T11:25:41.589Z,11.27
2018-12-18T11:28:09.082Z,13.63
2018-12-18T11:30:36.584Z,11.30
2018-12-18T11:33:04.053Z,13.40
2018-12-18T11:35:31.502Z,12.83
2018-12-18T11:37:59.029Z,18.23
2018-12-18T11:40:26.632Z,16.63
2018-12-18T11:42:54.097Z,16.47
2018-12-18T11:45:21.560Z,16.30
2018-12-18T11:47:49.051Z,15.80
2018-12-18T11:50:16.880Z,12.10
2018-12-18T11:52:44.434Z,14.63
2018-12-18T11:55:12.046Z,15.03
2018-12-18T11:57:39.589Z,17.23
2018-12-18T12:00:09.585Z,16.37
2018-12-18T12:02:42.712Z,11.43
2018-12-18T12:05:06.715Z,11.30
2018-12-18T12:07:34.530Z,10.23
2018-12-18T12:10:02.039Z,9.53
2018-12-18T12:12:29.502Z,13.43
2018-12-18T12:14:57.010Z,13.53
2018-12-18T12:17:24.983Z,14.13
2018-12-18T12:19:53.454Z,10.50
2018-12-18T12:22:21.010Z,17.73
2018-12-18T12:24:48.484Z,13.37
2018-12-18T12:27:22.176Z,15.03
2018-12-18T12:29:49.743Z,17.80
2018-12-18T12:32:17.344Z,19.10
2018-12-18T12:34:44.904Z,17.60
2018-12-18T12:37:12.368Z,22.73
2018-12-18T12:39:39.829Z,20.00
2018-12-18T12:42:07.404Z,16.97
2018-12-18T12:44:34.860Z,43.87
2018-12-18T12:47:02.460Z,22.57
2018-12-18T12:49:35.765Z,23.63
2018-12-18T12:52:03.382Z,20.00
2018-12-18T12:54:30.828Z,17.27
2018-12-18T12:56:58.328Z,19.23
2018-12-18T12:59:25.780Z,22.90
2018-12-18T13:01:53.327Z,19.40
2018-12-18T13:04:20.771Z,14.50
2018-12-18T13:06:48.256Z,19.00
2018-12-18T13:09:15.768Z,18.63
2018-12-18T13:11:43.257Z,18.50
2018-12-18T13:14:10.764Z,18.20
2018-12-18T13:16:38.280Z,16.37
2018-12-18T13:19:05.784Z,18.50
2018-12-18T13:21:33.317Z,19.93
2018-12-18T13:24:00.768Z,22.17
2018-12-18T13:26:28.335Z,19.50
2018-12-18T13:28:55.791Z,18.67
2018-12-18T13:31:23.275Z,19.80
2018-12-18T13:33:50.759Z,23.70
2018-12-18T13:36:18.209Z,19.07
2018-12-18T13:38:45.675Z,18.77
2018-12-18T13:41:13.096Z,21.30
2018-12-18T13:43:40.613Z,19.73
2018-12-18T13:46:14.816Z,21.47
2018-12-18T13:48:37.559Z,21.60
2018-12-18T13:51:05.073Z,19.03
2018-12-18T13:53:32.609Z,25.10
2018-12-18T13:56:00.376Z,21.97
2018-12-18T13:58:27.828Z,25.80
2018-12-18T14:00:55.269Z,22.63
2018-12-18T14:03:22.826Z,22.60
2018-12-18T14:05:50.282Z,19.47
2018-12-18T14:08:18.262Z,25.07
2018-12-18T14:10:45.715Z,24.83
2018-12-18T14:13:13.187Z,23.20
2018-12-18T14:15:40.641Z,23.77
2018-12-18T14:18:08.127Z,27.40
2018-12-18T14:20:35.536Z,22.77
2018-12-18T14:23:03.005Z,22.23
2018-12-18T14:25:30.466Z,22.63
2018-12-18T14:27:57.973Z,27.10
2018-12-18T14:30:25.431Z,21.40
2018-12-18T14:32:52.905Z,21.57
2018-12-18T14:35:20.454Z,23.03
2018-12-18T14:37:48.325Z,23.10
2018-12-18T14:40:15.784Z,21.83
2018-12-18T14:42:43.258Z,19.43
2018-12-18T14:45:10.702Z,17.33
2018-12-18T14:47:38.183Z,20.63
2018-12-18T14:50:06.626Z,16.60
2018-12-18T14:52:34.119Z,18.20
2018-12-18T14:55:01.569Z,16.70
2018-12-18T14:57:29.042Z,17.97
2018-12-18T14:59:56.608Z,18.40
2018-12-18T15:02:24.071Z,17.97
2018-12-18T15:04:51.647Z,15.63
2018-12-18T15:07:19.112Z,12.77
2018-12-18T15:09:46.556Z,12.80
2018-12-18T15:12:13.992Z,12.07
2018-12-18T15:14:41.500Z,14.47
2018-12-18T15:17:08.997Z,11.57
2018-12-18T15:19:36.448Z,13.93
2018-12-18T15:22:03.985Z,15.13
2018-12-18T15:24:31.424Z,14.63
2018-12-18T15:26:58.929Z,15.70
2018-12-18T15:29:26.355Z,13.00
2018-12-18T15:31:53.844Z,12.00
2018-12-18T15:34:21.284Z,13.60
2018-12-18T15:36:48.772Z,9.40
2018-12-18T15:39:16.307Z,12.57
2018-12-18T15:41:44.189Z,11.03
2018-12-18T15:44:11.939Z,15.13
2018-12-18T15:46:39.397Z,14.90
2018-12-18T15:49:06.918Z,16.10
2018-12-18T15:51:34.447Z,18.10
2018-12-18T15:54:01.963Z,13.30
2018-12-18T15:56:29.473Z,13.23
2018-12-18T15:58:56.903Z,13.53
2018-12-18T16:01:24.338Z,15.60
2018-12-18T16:03:52.168Z,14.17
2018-12-18T16:06:19.719Z,13.77
2018-12-18T16:08:47.161Z,19.80
2018-12-18T16:11:14.632Z,15.47
2018-12-18T16:13:42.068Z,18.43
2018-12-18T16:16:09.777Z,15.53
2018-12-18T16:18:37.246Z,12.90
2018-12-18T16:21:05.285Z,15.17
2018-12-18T16:23:32.796Z,14.33
2018-12-18T16:26:00.243Z,17.37
2018-12-18T16:28:27.705Z,16.00
2018-12-18T16:30:55.167Z,13.90
2018-12-18T16:33:22.612Z,17.33
2018-12-18T16:35:50.478Z,17.53
2018-12-18T16:38:17.928Z,13.87
2018-12-18T16:40:45.391Z,12.93
2018-12-18T16:43:12.941Z,14.23
2018-12-18T16:45:40.459Z,17.07
2018-12-18T16:48:07.993Z,14.23
2018-12-18T16:50:35.428Z,14.57
2018-12-18T16:53:02.934Z,15.07
2018-12-18T16:55:30.388Z,15.03
2018-12-18T16:57:57.826Z,18.90
2018-12-18T17:00:25.258Z,19.00
2018-12-18T17:02:52.733Z,15.37
2018-12-18T17:05:20.155Z,18.00
2018-12-18T17:07:47.605Z,14.40
2018-12-18T17:10:15.092Z,18.70
2018-12-18T17:12:44.499Z,16.80
2018-12-18T17:15:12.047Z,18.90
2018-12-18T17:17:39.934Z,22.10
2018-12-18T17:20:07.542Z,17.30
2018-12-18T17:22:35.047Z,22.67
2018-12-18T17:25:02.703Z,17.17
2018-12-18T17:27:30.177Z,17.00
2018-12-18T17:29:57.628Z,22.10
2018-12-18T17:32:25.394Z,19.40
2018-12-18T17:34:53.076Z,24.30
2018-12-18T17:37:20.627Z,23.33
2018-12-18T17:39:48.064Z,19.60
2018-12-18T17:42:15.526Z,19.87
2018-12-18T17:44:43.102Z,18.93
2018-12-18T17:47:10.703Z,26.20
2018-12-18T17:49:38.156Z,22.87
2018-12-18T17:52:05.664Z,25.40
2018-12-18T17:54:33.137Z,22.73
2018-12-18T17:57:00.626Z,21.20
2018-12-18T17:59:28.090Z,23.10
2018-12-18T18:01:55.606Z,20.90
2018-12-18T18:04:23.085Z,24.00
2018-12-18T18:06:50.706Z,22.10
2018-12-18T18:09:18.204Z,22.10
2018-12-18T18:11:45.681Z,20.67
2018-12-18T18:14:13.201Z,23.73
2018-12-18T18:16:40.747Z,27.00
2018-12-18T18:19:08.292Z,18.27
2018-12-18T18:21:35.753Z,13.70
2018-12-18T18:24:03.331Z,14.83
2018-12-18T18:26:32.235Z,14.20
2018-12-18T18:28:59.905Z,10.93
2018-12-18T18:31:27.335Z,13.13
2018-12-18T18:33:54.847Z,12.77
2018-12-18T18:36:22.285Z,10.80
2018-12-18T18:38:49.734Z,15.17
2018-12-18T18:41:17.210Z,9.47
2018-12-18T18:43:45.144Z,9.17
2018-12-18T18:46:12.922Z,9.13
2018-12-18T18:48:40.422Z,13.13
2018-12-18T18:51:08.004Z,12.90
2018-12-18T18:53:35.554Z,9.30
2018-12-18T18:56:03.139Z,14.07
2018-12-18T18:58:30.592Z,12.13
2018-12-18T19:00:58.389Z,12.77
2018-12-18T19:03:25.906Z,12.83
2018-12-18T19:05:53.339Z,13.67
2018-12-18T19:08:20.792Z,9.90
2018-12-18T19:10:48.406Z,13.13
2018-12-18T19:13:15.937Z,17.80
2018-12-18T19:15:43.387Z,15.13
2018-12-18T19:18:10.811Z,14.23
2018-12-18T19:20:38.314Z,15.67
2018-12-18T19:23:05.746Z,15.57
2018-12-18T19:25:33.254Z,17.10
2018-12-18T19:28:00.684Z,12.67
2018-12-18T19:30:28.163Z,15.93
2018-12-18T19:32:55.614Z,12.83
2018-12-18T19:35:23.166Z,11.47
2018-12-18T19:37:50.649Z,11.77
2018-12-18T19:40:18.120Z,11.70
2018-12-18T19:42:45.592Z,13.73
2018-12-18T19:45:13.078Z,14.20
2018-12-18T19:47:40.906Z,11.60
2018-12-18T19:50:08.470Z,13.03
2018-12-18T19:52:35.928Z,12.20
2018-12-18T19:55:03.919Z,15.10
2018-12-18T19:57:31.393Z,15.90
2018-12-18T19:59:58.921Z,19.53
2018-12-18T20:02:26.366Z,15.03
2018-12-18T20:04:54.062Z,12.80
2018-12-18T20:07:21.517Z,16.33
2018-12-18T20:09:49.493Z,15.37
2018-12-18T20:12:16.979Z,16.50
2018-12-18T20:14:44.453Z,13.93
2018-12-18T20:17:12.041Z,12.83
2018-12-18T20:19:39.720Z,14.30
2018-12-18T20:22:07.221Z,11.63
2018-12-18T20:24:34.793Z,9.83
2018-12-18T20:27:02.209Z,10.53
2018-12-18T20:29:29.907Z,13.77
2018-12-18T20:31:57.337Z,17.73
2018-12-18T20:34:24.818Z,15.03
2018-12-18T20:36:52.264Z,15.73
2018-12-18T20:39:19.754Z,15.03
2018-12-18T20:41:47.223Z,12.73
2018-12-18T20:44:14.713Z,19.90
2018-12-18T20:46:42.261Z,14.47
2018-12-18T20:49:09.728Z,19.10
2018-12-18T20:51:37.158Z,17.33
2018-12-18T20:54:04.629Z,13.50
2018-12-18T20:56:32.146Z,14.50
2018-12-18T20:58:59.657Z,16.90
2018-12-18T21:01:28.587Z,12.50
2018-12-18T21:03:56.163Z,12.90
2018-12-18T21:06:23.996Z,10.90
2018-12-18T21:08:51.509Z,12.63
2018-12-18T21:11:19.005Z,15.43
2018-12-18T21:13:46.467Z,16.50
2018-12-18T21:16:13.905Z,13.83
2018-12-18T21:18:41.332Z,14.67
2018-12-18T21:21:15.219Z,14.23
2018-12-18T21:23:38.385Z,15.40
2018-12-18T21:26:05.969Z,15.57
2018-12-18T21:28:33.484Z,14.00
2018-12-18T21:31:01.030Z,13.70
2018-12-18T21:33:28.502Z,14.00
2018-12-18T21:35:56.020Z,15.03
2018-12-18T21:38:30.039Z,17.70
2018-12-18T21:40:52.893Z,20.17
2018-12-18T21:43:20.358Z,12.70
2018-12-18T21:45:47.822Z,15.10
2018-12-18T21:48:15.244Z,15.13
2018-12-18T21:50:42.715Z,17.37
2018-12-18T21:53:10.160Z,15.40
2018-12-18T21:55:37.616Z,11.33
2018-12-18T21:58:05.071Z,14.77
2018-12-18T22:00:32.568Z,15.37
2018-12-18T22:02:59.982Z,11.83
2018-12-18T22:05:27.496Z,17.53
2018-12-18T22:07:55.059Z,13.93
2018-12-18T22:10:22.612Z,10.00
2018-12-18T22:12:50.043Z,11.77
2018-12-18T22:15:17.494Z,16.90
2018-12-18T22:17:44.984Z,13.60
2018-12-18T22:20:12.437Z,12.80
2018-12-18T22:22:39.887Z,16.17
2018-12-18T22:25:07.358Z,15.03
2018-12-18T22:27:34.834Z,11.10
2018-12-18T22:30:02.287Z,13.60
2018-12-18T22:32:30.388Z,13.33
2018-12-18T22:34:57.813Z,10.80
2018-12-18T22:37:25.306Z,14.23
2018-12-18T22:39:52.761Z,13.70
2018-12-18T22:42:20.206Z,12.70
2018-12-18T22:44:47.678Z,17.43
2018-12-18T22:47:15.157Z,13.10
2018-12-18T22:49:42.917Z,13.43
2018-12-18T22:52:10.392Z,17.33
2018-12-18T22:54:37.968Z,15.17
2018-12-18T22:57:05.524Z,14.73
2018-12-18T22:59:33.015Z,19.83
2018-12-18T23:02:02.424Z,19.57
2018-12-18T23:04:29.865Z,15.33
2018-12-18T23:06:57.402Z,14.40
2018-12-18T23:09:24.869Z,14.70
2018-12-18T23:11:52.435Z,15.10
2018-12-18T23:14:19.887Z,17.60
2018-12-18T23:16:47.329Z,17.20
2018-12-18T23:19:14.793Z,16.60
2018-12-18T23:21:42.253Z,14.37
2018-12-18T23:24:09.726Z,16.40
2018-12-18T23:26:37.155Z,15.73
2018-12-18T23:29:04.755Z,21.13
2018-12-18T23:31:32.188Z,17.90
2018-12-18T23:33:59.639Z,18.13
2018-12-18T23:36:27.148Z,17.77
2018-12-18T23:38:56.967Z,19.60
2018-12-18T23:41:24.130Z,17.67
2018-12-18T23:43:51.585Z,27.07
2018-12-18T23:46:19.017Z,22.53
2018-12-18T23:48:46.532Z,20.90
2018-12-18T23:51:13.992Z,22.63
2018-12-18T23:53:41.550Z,25.67
2018-12-18T23:56:08.978Z,25.00
2018-12-18T23:58:36.432Z,21.27
